No particular awareness of the weather is required.    There are no Weather-warnings


Meteo18 Weather Cam more information Meteo18 Weather Cam


Thunder radar more information blitzortung!


Rain radar more information rain snow radar


Visit our other weather sites:

Template documentation
and downloads

And another site



Weather Underground History page Text

Daily Summary for June 22, 2017 Units:  English    Metric   Both
« Previous Day
Next Day »
Daily Weekly Monthly Yearly Custom
  High: Low: Average:
Temperature: TemperatureC °F 19.1 °F 27.4 °F
Dew Point: DewpointC °F 9.1 °F 15.9 °F
Humidity: Humidity % 22 % 54 %
Wind Speed: WindSpeedKMH mph 0.0 mph 5.2 mph
Wind Gust: WindSpeedGustKMH mph - -
Wind:- - WSW
Pressure: PressurehPa in 1015.1 in -
Precipitation: 0.0 in    
Historical Graphs
 
 
Tabular Data for June 22, 2017
Time Temperature Dew Point Pressure Wind Wind Speed Wind Gust Humidity Rainfall Rate (Hourly)
TemperatureC °F DewpointC °F PressurehPa in Calm     Humidity % HourlyPrecipMM in
00:02 25.6 °F 20.2 °F 1015.8 in Calm     72 % 0.0 in
00:07 25.5 °F 20.1 °F 1015.8 in Calm     72 % 0.0 in
00:12 25.3 °F 20.1 °F 1015.8 in Calm     73 % 0.0 in
00:17 25.1 °F 20.1 °F 1015.8 in Calm     74 % 0.0 in
00:22 25.1 °F 20.1 °F 1015.8 in Calm     74 % 0.0 in
00:27 24.9 °F 19.9 °F 1015.8 in Calm     74 % 0.0 in
00:32 24.8 °F 20.1 °F 1015.8 in Calm     75 % 0.0 in
00:37 24.7 °F 20.2 °F 1015.8 in Calm     76 % 0.0 in
00:42 24.7 °F 20.0 °F 1015.8 in Calm     75 % 0.0 in
00:52 24.5 °F 20.0 °F 1015.8 in Calm     76 % 0.0 in
01:02 24.8 °F 20.1 °F 1015.8 in Calm     75 % 0.0 in
01:12 24.4 °F 19.9 °F 1015.8 in Calm     76 % 0.0 in
01:17 24.2 °F 19.9 °F 1015.8 in Calm     77 % 0.0 in
01:22 23.9 °F 19.8 °F 1015.8 in Calm     78 % 0.0 in
01:32 23.6 °F 19.7 °F 1015.8 in Calm     79 % 0.0 in
01:42 23.4 °F 19.8 °F 1015.8 in Calm     80 % 0.0 in
01:52 23.3 °F 19.7 °F 1015.8 in Calm     80 % 0.0 in
02:02 23.1 °F 19.5 °F 1015.8 in Calm     80 % 0.0 in
02:07 22.8 °F 19.4 °F 1015.8 in Calm     81 % 0.0 in
02:12 22.8 °F 19.8 °F 1015.8 in Calm     83 % 0.0 in
02:17 22.8 °F 19.8 °F 1015.8 in Calm     83 % 0.0 in
02:22 22.7 °F 19.7 °F 1015.8 in Calm     83 % 0.0 in
02:27 22.7 °F 19.7 °F 1015.8 in Calm     83 % 0.0 in
02:32 22.7 °F 19.7 °F 1015.8 in Calm     83 % 0.0 in
02:37 22.7 °F 19.7 °F 1015.8 in Calm     83 % 0.0 in
02:42 22.7 °F 19.7 °F 1015.8 in Calm     83 % 0.0 in
02:47 22.7 °F 19.7 °F 1015.8 in Calm     83 % 0.0 in
02:52 22.7 °F 19.5 °F 1015.8 in Calm     82 % 0.0 in
03:02 22.4 °F 19.4 °F 1015.8 in Calm     83 % 0.0 in
03:12 22.1 °F 19.3 °F 1015.8 in Calm     84 % 0.0 in
03:17 22.0 °F 19.4 °F 1015.5 in Calm     85 % 0.0 in
03:22 21.9 °F 19.3 °F 1015.5 in Calm     85 % 0.0 in
03:32 21.6 °F 19.2 °F 1015.5 in Calm     86 % 0.0 in
03:42 21.4 °F 19.0 °F 1015.5 in Calm     86 % 0.0 in
03:47 21.3 °F 18.9 °F 1015.5 in Calm     86 % 0.0 in
03:52 21.2 °F 18.8 °F 1015.5 in Calm     86 % 0.0 in
03:57 21.1 °F 18.9 °F 1015.5 in Calm     87 % 0.0 in
04:02 21.1 °F 18.7 °F 1015.5 in Calm     86 % 0.0 in
04:12 21.2 °F 18.6 °F 1015.5 in Calm     85 % 0.0 in
04:17 21.3 °F 18.5 °F 1015.5 in Calm     84 % 0.0 in
04:22 21.3 °F 18.5 °F 1015.5 in Calm     84 % 0.0 in
04:32 21.1 °F 18.3 °F 1015.5 in Calm     84 % 0.0 in
04:42 20.8 °F 18.2 °F 1015.5 in Calm     85 % 0.0 in
04:47 20.7 °F 18.1 °F 1015.5 in Calm     85 % 0.0 in
04:52 20.5 °F 17.9 °F 1015.5 in Calm     85 % 0.0 in
05:02 20.3 °F 17.7 °F 1015.5 in Calm     85 % 0.0 in
05:12 20.0 °F 17.8 °F 1015.5 in Calm     87 % 0.0 in
05:17 19.8 °F 17.8 °F 1015.1 in Calm     88 % 0.0 in
05:22 19.7 °F 17.7 °F 1015.5 in Calm     88 % 0.0 in
05:32 19.5 °F 17.5 °F 1015.5 in Calm     88 % 0.0 in
05:42 19.3 °F 17.3 °F 1015.5 in Calm     88 % 0.0 in
05:52 19.1 °F 17.2 °F 1015.5 in Calm     89 % 0.0 in
06:02 19.1 °F 17.2 °F 1015.5 in Calm     89 % 0.0 in
06:12 19.2 °F 17.3 °F 1015.8 in SSW 1.6 mph   89 % 0.0 in
06:17 19.4 °F 17.5 °F 1015.8 in Calm   3.2 mph 89 % 0.0 in
06:22 19.2 °F 17.2 °F 1015.8 in Calm   3.2 mph 88 % 0.0 in
06:32 19.6 °F 17.7 °F 1015.5 in Calm   3.2 mph 89 % 0.0 in
06:42 19.8 °F 17.8 °F 1015.8 in Calm   4.8 mph 88 % 0.0 in
06:47 19.9 °F 17.7 °F 1015.8 in SSE 1.6 mph 1.6 mph 87 % 0.0 in
06:52 20.0 °F 17.8 °F 1015.8 in Calm   1.6 mph 87 % 0.0 in
07:02 20.4 °F 18.0 °F 1015.8 in Calm   1.6 mph 86 % 0.0 in
07:12 20.8 °F 18.0 °F 1015.8 in Calm   1.6 mph 84 % 0.0 in
07:17 21.1 °F 18.3 °F 1015.8 in Calm     84 % 0.0 in
07:22 21.4 °F 18.4 °F 1015.8 in Calm     83 % 0.0 in
07:32 21.8 °F 18.8 °F 1015.8 in SW 1.6 mph   83 % 0.0 in
07:42 21.9 °F 18.5 °F 1015.8 in SSW 1.6 mph 1.6 mph 81 % 0.0 in
07:47 21.9 °F 18.7 °F 1016.1 in SSW 1.6 mph 1.6 mph 82 % 0.0 in
07:52 21.9 °F 18.5 °F 1016.1 in Calm   1.6 mph 81 % 0.0 in
08:02 22.3 °F 18.7 °F 1016.1 in Calm   4.8 mph 80 % 0.0 in
08:07 22.4 °F 18.8 °F 1016.1 in SSW 1.6 mph 4.8 mph 80 % 0.0 in
08:12 22.7 °F 19.1 °F 1016.1 in Calm   4.8 mph 80 % 0.0 in
08:17 22.8 °F 18.8 °F 1016.1 in SW 8.0 mph 8.0 mph 78 % 0.0 in
08:22 22.9 °F 18.9 °F 1016.1 in SSW 6.4 mph 6.4 mph 78 % 0.0 in
08:32 23.3 °F 19.2 °F 1016.1 in SSW 4.8 mph 8.0 mph 78 % 0.0 in
08:42 23.8 °F 19.3 °F 1016.5 in SSW 1.6 mph 8.0 mph 76 % 0.0 in
08:47 24.1 °F 19.0 °F 1016.5 in SW 12.9 mph 12.9 mph 73 % 0.0 in
08:52 24.3 °F 18.9 °F 1016.5 in South 6.4 mph 11.3 mph 72 % 0.0 in
09:02 24.8 °F 18.5 °F 1016.5 in South 6.4 mph 16.1 mph 68 % 0.0 in
09:07 25.0 °F 18.0 °F 1016.5 in SW 3.2 mph 14.5 mph 65 % 0.0 in
09:12 25.4 °F 18.3 °F 1016.5 in SW 3.2 mph 14.5 mph 65 % 0.0 in
09:17 25.6 °F 18.5 °F 1016.5 in SW 4.8 mph 9.7 mph 65 % 0.0 in
09:22 25.7 °F 17.9 °F 1016.5 in WSW 4.8 mph 9.7 mph 62 % 0.0 in
09:32 25.9 °F 17.8 °F 1016.8 in SW 8.0 mph 14.5 mph 61 % 0.0 in
09:42 26.3 °F 17.9 °F 1016.5 in SSW 6.4 mph 16.1 mph 60 % 0.0 in
09:52 26.6 °F 17.1 °F 1016.8 in West 12.9 mph 14.5 mph 56 % 0.0 in
10:02 26.8 °F 17.6 °F 1016.8 in SSW 1.6 mph 17.7 mph 57 % 0.0 in
10:12 27.3 °F 17.5 °F 1016.8 in WSW 9.7 mph 17.7 mph 55 % 0.0 in
10:17 27.5 °F 17.7 °F 1016.8 in South 6.4 mph 14.5 mph 55 % 0.0 in
10:22 27.6 °F 17.2 °F 1016.8 in SW 8.0 mph 14.5 mph 53 % 0.0 in
10:27 27.7 °F 17.8 °F 1016.8 in SW 11.3 mph 14.5 mph 55 % 0.0 in
10:32 27.7 °F 17.2 °F 1016.8 in SW 8.0 mph 14.5 mph 53 % 0.0 in
10:42 27.8 °F 16.4 °F 1016.8 in WSW 14.5 mph 16.1 mph 50 % 0.0 in
10:47 27.9 °F 16.2 °F 1016.8 in SW 16.1 mph 17.7 mph 49 % 0.0 in
10:52 27.9 °F 16.2 °F 1016.8 in West 6.4 mph 17.7 mph 49 % 0.0 in
11:02 28.2 °F 16.5 °F 1016.8 in West 4.8 mph 22.5 mph 49 % 0.0 in
11:12 28.2 °F 16.5 °F 1016.8 in SW 19.3 mph 22.5 mph 49 % 0.0 in
11:17 28.3 °F 15.6 °F 1016.8 in WSW 9.7 mph 22.5 mph 46 % 0.0 in
11:22 28.5 °F 15.8 °F 1016.8 in West 11.3 mph 22.5 mph 46 % 0.0 in
11:32 28.8 °F 16.7 °F 1016.8 in SSW 4.8 mph 22.5 mph 48 % 0.0 in
11:42 29.1 °F 16.0 °F 1016.8 in SW 9.7 mph 22.5 mph 45 % 0.0 in
11:47 29.4 °F 16.6 °F 1016.8 in WSW 8.0 mph 19.3 mph 46 % 0.0 in
11:52 29.7 °F 15.8 °F 1016.8 in SW 6.4 mph 19.3 mph 43 % 0.0 in
12:02 29.8 °F 15.5 °F 1016.8 in SSW 6.4 mph 19.3 mph 42 % 0.0 in
12:12 30.2 °F 14.3 °F 1016.8 in West 9.7 mph 22.5 mph 38 % 0.0 in
12:17 30.3 °F 14.8 °F 1016.8 in SW 8.0 mph 20.9 mph 39 % 0.0 in
12:27 30.6 °F 13.8 °F 1016.8 in SW 12.9 mph 22.5 mph 36 % 0.0 in
12:32 30.7 °F 13.0 °F 1016.8 in WSW 14.5 mph 22.5 mph 34 % 0.0 in
12:42 30.9 °F 11.8 °F 1016.5 in SW 6.4 mph 24.1 mph 31 % 0.0 in
12:47 31.1 °F 11.5 °F 1016.5 in WSW 20.9 mph 24.1 mph 30 % 0.0 in
12:52 31.2 °F 12.1 °F 1016.5 in SW 17.7 mph 24.1 mph 31 % 0.0 in
13:02 31.1 °F 12.5 °F 1016.5 in SW 12.9 mph 25.7 mph 32 % 0.0 in
13:12 31.3 °F 13.6 °F 1016.5 in West 14.5 mph 27.4 mph 34 % 0.0 in
13:17 31.4 °F 12.7 °F 1016.5 in West 11.3 mph 24.1 mph 32 % 0.0 in
13:22 31.6 °F 12.4 °F 1016.5 in WSW 6.4 mph 24.1 mph 31 % 0.0 in
13:32 31.6 °F 11.9 °F 1016.5 in SW 9.7 mph 22.5 mph 30 % 0.0 in
13:37 31.8 °F 12.1 °F 1016.5 in West 14.5 mph 25.7 mph 30 % 0.0 in
13:42 31.9 °F 12.7 °F 1016.5 in SW 9.7 mph 25.7 mph 31 % 0.0 in
13:47 32.1 °F 11.8 °F 1016.1 in West 9.7 mph 27.4 mph 29 % 0.0 in
13:52 32.2 °F 11.4 °F 1016.1 in West 16.1 mph 27.4 mph 28 % 0.0 in
13:57 32.0 °F 11.2 °F 1016.5 in SW 6.4 mph 27.4 mph 28 % 0.0 in
14:02 32.0 °F 10.7 °F 1016.1 in West 19.3 mph 27.4 mph 27 % 0.0 in
14:07 32.1 °F 12.3 °F 1016.1 in WSW 17.7 mph 27.4 mph 30 % 0.0 in
14:12 32.2 °F 10.8 °F 1016.1 in SSW 12.9 mph 27.4 mph 27 % 0.0 in
14:17 32.4 °F 12.1 °F 1016.1 in WSW 14.5 mph 24.1 mph 29 % 0.0 in
14:22 32.5 °F 11.6 °F 1016.1 in WSW 12.9 mph 24.1 mph 28 % 0.0 in
14:32 32.7 °F 11.3 °F 1016.1 in SW 19.3 mph 25.7 mph 27 % 0.0 in
14:37 32.8 °F 10.2 °F 1016.1 in WNW 11.3 mph 22.5 mph 25 % 0.0 in
14:42 32.9 °F 11.4 °F 1016.1 in WSW 11.3 mph 22.5 mph 27 % 0.0 in
14:47 33.1 °F 11.0 °F 1016.1 in WSW 14.5 mph 24.1 mph 26 % 0.0 in
14:52 33.2 °F 11.1 °F 1016.1 in WNW 11.3 mph 24.1 mph 26 % 0.0 in
15:02 33.4 °F 11.3 °F 1016.1 in West 9.7 mph 24.1 mph 26 % 0.0 in
15:12 33.6 °F 10.9 °F 1016.1 in WSW 6.4 mph 24.1 mph 25 % 0.0 in
15:17 33.7 °F 10.3 °F 1016.1 in West 12.9 mph 24.1 mph 24 % 0.0 in
15:22 33.8 °F 10.4 °F 1015.8 in West 11.3 mph 24.1 mph 24 % 0.0 in
15:27 33.8 °F 9.1 °F 1016.1 in SW 12.9 mph 27.4 mph 22 % 0.0 in
15:32 33.8 °F 10.4 °F 1016.1 in WSW 8.0 mph 27.4 mph 24 % 0.0 in
15:37 33.7 °F 10.3 °F 1016.1 in WSW 9.7 mph 27.4 mph 24 % 0.0 in
15:42 33.7 °F 10.9 °F 1015.8 in SW 9.7 mph 27.4 mph 25 % 0.0 in
15:47 33.8 °F 10.4 °F 1015.8 in West 14.5 mph 25.7 mph 24 % 0.0 in
15:52 33.7 °F 10.9 °F 1015.8 in WSW 9.7 mph 25.7 mph 25 % 0.0 in
15:57 33.7 °F 10.9 °F 1015.8 in West 9.7 mph 22.5 mph 25 % 0.0 in
16:02 33.6 °F 10.9 °F 1015.8 in WSW 12.9 mph 22.5 mph 25 % 0.0 in
16:12 33.8 °F 12.2 °F 1015.8 in West 12.9 mph 22.5 mph 27 % 0.0 in
16:17 34.0 °F 12.4 °F 1015.8 in WSW 20.9 mph 20.9 mph 27 % 0.0 in
16:22 33.7 °F 12.1 °F 1015.8 in West 17.7 mph 20.9 mph 27 % 0.0 in
16:32 34.1 °F 12.4 °F 1015.5 in West 16.1 mph 20.9 mph 27 % 0.0 in
16:42 34.0 °F 12.4 °F 1015.5 in WSW 9.7 mph 19.3 mph 27 % 0.0 in
16:52 34.1 °F 12.4 °F 1015.5 in SW 12.9 mph 17.7 mph 27 % 0.0 in
16:57 33.8 °F 12.7 °F 1015.5 in West 8.0 mph 22.5 mph 28 % 0.0 in
17:02 34.0 °F 12.4 °F 1015.5 in WSW 6.4 mph 22.5 mph 27 % 0.0 in
17:07 34.0 °F 12.4 °F 1015.5 in West 16.1 mph 22.5 mph 27 % 0.0 in
17:12 33.8 °F 12.7 °F 1015.5 in WNW 6.4 mph 22.5 mph 28 % 0.0 in
17:17 33.9 °F 13.4 °F 1015.5 in WNW 9.7 mph 20.9 mph 29 % 0.0 in
17:27 33.9 °F 12.3 °F 1015.5 in West 11.3 mph 22.5 mph 27 % 0.0 in
17:32 33.9 °F 12.8 °F 1015.5 in WSW 14.5 mph 22.5 mph 28 % 0.0 in
17:42 33.8 °F 12.7 °F 1015.5 in West 9.7 mph 24.1 mph 28 % 0.0 in
17:47 33.8 °F 12.7 °F 1015.5 in WSW 12.9 mph 19.3 mph 28 % 0.0 in
17:52 33.8 °F 12.7 °F 1015.5 in West 14.5 mph 19.3 mph 28 % 0.0 in
17:57 33.8 °F 12.7 °F 1015.5 in West 16.1 mph 22.5 mph 28 % 0.0 in
18:02 33.7 °F 12.7 °F 1015.5 in West 16.1 mph 22.5 mph 28 % 0.0 in
18:12 33.6 °F 12.0 °F 1015.5 in West 14.5 mph 22.5 mph 27 % 0.0 in
18:17 33.6 °F 13.1 °F 1015.5 in West 8.0 mph 22.5 mph 29 % 0.0 in
18:22 33.6 °F 12.6 °F 1015.5 in WSW 11.3 mph 17.7 mph 28 % 0.0 in
18:32 33.7 °F 12.7 °F 1015.5 in West 4.8 mph 17.7 mph 28 % 0.0 in
18:42 33.6 °F 13.1 °F 1015.5 in West 9.7 mph 16.1 mph 29 % 0.0 in
18:47 33.4 °F 12.9 °F 1015.5 in West 11.3 mph 19.3 mph 29 % 0.0 in
18:52 33.4 °F 12.9 °F 1015.5 in SW 6.4 mph 19.3 mph 29 % 0.0 in
18:57 33.4 °F 13.5 °F 1015.5 in SW 6.4 mph 19.3 mph 30 % 0.0 in
19:02 33.4 °F 14.0 °F 1015.5 in WSW 11.3 mph 19.3 mph 31 % 0.0 in
19:07 33.4 °F 13.5 °F 1015.5 in SW 3.2 mph 14.5 mph 30 % 0.0 in
19:12 33.4 °F 14.0 °F 1015.5 in SW 6.4 mph 14.5 mph 31 % 0.0 in
19:17 33.4 °F 14.0 °F 1015.5 in West 3.2 mph 14.5 mph 31 % 0.0 in
19:22 33.4 °F 14.0 °F 1015.5 in WNW 6.4 mph 14.5 mph 31 % 0.0 in
19:32 33.3 °F 13.9 °F 1015.5 in SW 4.8 mph 11.3 mph 31 % 0.0 in
19:37 33.2 °F 14.3 °F 1015.5 in West 4.8 mph 9.7 mph 32 % 0.0 in
19:42 33.3 °F 14.4 °F 1015.5 in Calm   9.7 mph 32 % 0.0 in
19:52 33.2 °F 14.8 °F 1015.5 in West 3.2 mph 9.7 mph 33 % 0.0 in
19:57 33.2 °F 14.8 °F 1015.5 in WSW 3.2 mph 8.0 mph 33 % 0.0 in
20:02 33.1 °F 14.7 °F 1015.5 in Calm   8.0 mph 33 % 0.0 in
20:12 33.1 °F 15.1 °F 1015.5 in WSW 4.8 mph 6.4 mph 34 % 0.0 in
20:17 32.8 °F 14.9 °F 1015.5 in Calm   6.4 mph 34 % 0.0 in
20:22 32.7 °F 14.8 °F 1015.5 in WSW 3.2 mph 6.4 mph 34 % 0.0 in
20:32 32.3 °F 14.9 °F 1015.5 in Calm   8.0 mph 35 % 0.0 in
20:37 32.2 °F 15.2 °F 1015.5 in Calm   4.8 mph 36 % 0.0 in
20:42 32.0 °F 16.3 °F 1015.5 in Calm   4.8 mph 39 % 0.0 in
20:52 31.4 °F 16.6 °F 1015.5 in Calm   1.6 mph 41 % 0.0 in
20:57 31.0 °F 16.6 °F 1015.5 in Calm     42 % 0.0 in
21:02 30.7 °F 16.7 °F 1015.5 in Calm     43 % 0.0 in
21:12 30.1 °F 17.5 °F 1015.5 in Calm     47 % 0.0 in
21:17 29.3 °F 16.8 °F 1015.5 in Calm     47 % 0.0 in
21:22 28.8 °F 16.4 °F 1015.5 in Calm     47 % 0.0 in
21:32 28.3 °F 17.2 °F 1015.5 in West 1.6 mph 1.6 mph 51 % 0.0 in
21:42 27.7 °F 16.9 °F 1015.8 in Calm   3.2 mph 52 % 0.0 in
21:52 27.1 °F 16.7 °F 1015.8 in Calm   3.2 mph 53 % 0.0 in
21:57 26.9 °F 16.8 °F 1015.8 in Calm   1.6 mph 54 % 0.0 in
22:02 26.6 °F 16.8 °F 1015.8 in Calm   1.6 mph 55 % 0.0 in
22:12 26.3 °F 17.1 °F 1015.8 in Calm     57 % 0.0 in
22:17 26.0 °F 17.1 °F 1016.1 in Calm     58 % 0.0 in
22:22 25.8 °F 17.2 °F 1016.1 in WNW 1.6 mph   59 % 0.0 in
22:32 25.4 °F 17.1 °F 1016.1 in Calm   1.6 mph 60 % 0.0 in
22:47 24.9 °F 16.3 °F 1016.1 in Calm     59 % 0.0 in
22:52 24.9 °F 16.6 °F 1016.1 in Calm     60 % 0.0 in
23:02 24.7 °F 16.4 °F 1016.1 in Calm     60 % 0.0 in
23:12 24.4 °F 16.4 °F 1016.5 in Calm     61 % 0.0 in
23:17 24.3 °F 16.3 °F 1016.5 in Calm   1.6 mph 61 % 0.0 in
23:22 24.2 °F 16.2 °F 1016.1 in Calm   1.6 mph 61 % 0.0 in
23:32 24.1 °F 16.4 °F 1016.5 in Calm     62 % 0.0 in
23:42 23.8 °F 16.1 °F 1016.5 in Calm     62 % 0.0 in
23:47 23.8 °F 15.8 °F 1016.5 in Calm   1.6 mph 61 % 0.0 in
23:52 23.7 °F 16.0 °F 1016.5 in SSW 3.2 mph 3.2 mph 62 % 0.0 in
23:57 23.6 °F 16.1 °F 1016.5 in South 1.6 mph 3.2 mph 63 % 0.0 in
Meteo18
Compliments of Weather Underground - 4 mb

Script developed by  Jim McMurry - jmcmurry@mwt.net Adapted for the template by  Wim van der Kuil - Leuven-Template.eu

You find our weather info also at:

European Weather Network

Weather Underground

Equipment we use:

Weather-station
Davis Vue

Weather-program
Meteobridge

Weather-server
Raspberry PI 2 B+

Provider
1 and 1

Davis Vue

Meteobridge

Raspberry PI 2 B+

1 and 1